sensor_id;sensor_type;location;lat;lon;timestamp;P1;durP1;ratioP1;P2;durP2;ratioP2
75535;SDS011;64119;52.070;20.804;2023-09-19T00:00:48;13.90;;;8.70;;
75535;SDS011;64119;52.070;20.804;2023-09-19T00:03:35;13.50;;;9.70;;
75535;SDS011;64119;52.070;20.804;2023-09-19T00:06:05;12.80;;;8.90;;
75535;SDS011;64119;52.070;20.804;2023-09-19T00:08:34;14.40;;;10.20;;
75535;SDS011;64119;52.070;20.804;2023-09-19T00:11:00;13.80;;;9.30;;
75535;SDS011;64119;52.070;20.804;2023-09-19T00:13:32;15.10;;;9.60;;
75535;SDS011;64119;52.070;20.804;2023-09-19T00:16:00;16.10;;;9.80;;
75535;SDS011;64119;52.070;20.804;2023-09-19T00:18:26;16.80;;;10.80;;
75535;SDS011;64119;52.070;20.804;2023-09-19T00:20:58;15.20;;;9.60;;
75535;SDS011;64119;52.070;20.804;2023-09-19T00:23:25;14.80;;;9.50;;
75535;SDS011;64119;52.070;20.804;2023-09-19T00:25:51;16.30;;;10.10;;
75535;SDS011;64119;52.070;20.804;2023-09-19T00:28:18;13.00;;;9.10;;
75535;SDS011;64119;52.070;20.804;2023-09-19T00:30:47;19.00;;;10.70;;
75535;SDS011;64119;52.070;20.804;2023-09-19T00:33:16;15.00;;;10.20;;
75535;SDS011;64119;52.070;20.804;2023-09-19T00:35:52;13.90;;;9.40;;
75535;SDS011;64119;52.070;20.804;2023-09-19T00:38:20;15.40;;;9.80;;
75535;SDS011;64119;52.070;20.804;2023-09-19T00:40:48;15.70;;;10.20;;
75535;SDS011;64119;52.070;20.804;2023-09-19T00:43:18;13.00;;;9.10;;
75535;SDS011;64119;52.070;20.804;2023-09-19T00:45:50;13.90;;;10.00;;
75535;SDS011;64119;52.070;20.804;2023-09-19T00:48:20;13.50;;;9.00;;
75535;SDS011;64119;52.070;20.804;2023-09-19T00:50:48;14.40;;;10.00;;
75535;SDS011;64119;52.070;20.804;2023-09-19T00:53:19;13.10;;;9.20;;
75535;SDS011;64119;52.070;20.804;2023-09-19T00:55:49;17.10;;;10.70;;
75535;SDS011;64119;52.070;20.804;2023-09-19T00:58:17;14.90;;;10.50;;
75535;SDS011;64119;52.070;20.804;2023-09-19T01:00:45;16.10;;;9.70;;
75535;SDS011;64119;52.070;20.804;2023-09-19T01:03:13;14.50;;;9.90;;
75535;SDS011;64119;52.070;20.804;2023-09-19T01:05:41;15.00;;;9.80;;
75535;SDS011;64119;52.070;20.804;2023-09-19T01:08:08;13.90;;;10.50;;
75535;SDS011;64119;52.070;20.804;2023-09-19T01:10:38;13.50;;;9.30;;
75535;SDS011;64119;52.070;20.804;2023-09-19T01:13:25;14.70;;;10.30;;
75535;SDS011;64119;52.070;20.804;2023-09-19T01:15:59;14.50;;;9.80;;
75535;SDS011;64119;52.070;20.804;2023-09-19T01:29:46;14.30;;;9.20;;
75535;SDS011;64119;52.070;20.804;2023-09-19T01:32:16;13.70;;;10.00;;
75535;SDS011;64119;52.070;20.804;2023-09-19T01:34:53;14.00;;;10.00;;
75535;SDS011;64119;52.070;20.804;2023-09-19T01:37:20;16.00;;;9.70;;
75535;SDS011;64119;52.070;20.804;2023-09-19T01:39:58;14.60;;;9.70;;
75535;SDS011;64119;52.070;20.804;2023-09-19T01:45:11;13.70;;;9.40;;
75535;SDS011;64119;52.070;20.804;2023-09-19T01:47:42;14.80;;;10.80;;
75535;SDS011;64119;52.070;20.804;2023-09-19T01:50:20;13.60;;;9.40;;
75535;SDS011;64119;52.070;20.804;2023-09-19T01:55:48;16.70;;;10.20;;
75535;SDS011;64119;52.070;20.804;2023-09-19T01:58:23;16.10;;;10.60;;
75535;SDS011;64119;52.070;20.804;2023-09-19T02:01:11;13.00;;;9.90;;
75535;SDS011;64119;52.070;20.804;2023-09-19T02:03:43;13.50;;;9.10;;
75535;SDS011;64119;52.070;20.804;2023-09-19T02:06:15;14.90;;;9.80;;
75535;SDS011;64119;52.070;20.804;2023-09-19T02:08:44;13.00;;;8.90;;
75535;SDS011;64119;52.070;20.804;2023-09-19T02:11:11;15.20;;;10.40;;
75535;SDS011;64119;52.070;20.804;2023-09-19T02:13:39;14.30;;;10.40;;
75535;SDS011;64119;52.070;20.804;2023-09-19T02:16:07;13.80;;;9.60;;
75535;SDS011;64119;52.070;20.804;2023-09-19T02:18:37;13.50;;;8.50;;
75535;SDS011;64119;52.070;20.804;2023-09-19T02:21:03;13.40;;;9.70;;
75535;SDS011;64119;52.070;20.804;2023-09-19T02:23:30;13.00;;;9.70;;
75535;SDS011;64119;52.070;20.804;2023-09-19T02:25:56;16.40;;;9.60;;
75535;SDS011;64119;52.070;20.804;2023-09-19T02:28:32;15.20;;;10.50;;
75535;SDS011;64119;52.070;20.804;2023-09-19T02:30:59;14.50;;;10.50;;
75535;SDS011;64119;52.070;20.804;2023-09-19T02:33:25;14.90;;;10.10;;
75535;SDS011;64119;52.070;20.804;2023-09-19T02:35:56;15.00;;;10.20;;
75535;SDS011;64119;52.070;20.804;2023-09-19T02:38:30;16.40;;;11.00;;
75535;SDS011;64119;52.070;20.804;2023-09-19T02:40:56;15.50;;;9.80;;
75535;SDS011;64119;52.070;20.804;2023-09-19T02:43:23;16.20;;;10.30;;
75535;SDS011;64119;52.070;20.804;2023-09-19T02:45:50;15.00;;;10.40;;
75535;SDS011;64119;52.070;20.804;2023-09-19T02:48:17;14.00;;;8.40;;
75535;SDS011;64119;52.070;20.804;2023-09-19T02:50:44;12.90;;;9.00;;
75535;SDS011;64119;52.070;20.804;2023-09-19T02:53:11;16.00;;;10.80;;
75535;SDS011;64119;52.070;20.804;2023-09-19T02:55:39;12.30;;;9.20;;
75535;SDS011;64119;52.070;20.804;2023-09-19T02:58:09;15.10;;;10.70;;
75535;SDS011;64119;52.070;20.804;2023-09-19T03:00:37;17.40;;;10.70;;
75535;SDS011;64119;52.070;20.804;2023-09-19T03:03:05;18.30;;;10.00;;
75535;SDS011;64119;52.070;20.804;2023-09-19T03:05:32;15.10;;;10.70;;
75535;SDS011;64119;52.070;20.804;2023-09-19T03:07:59;13.60;;;9.60;;
75535;SDS011;64119;52.070;20.804;2023-09-19T03:10:29;16.10;;;10.10;;
75535;SDS011;64119;52.070;20.804;2023-09-19T03:12:58;13.40;;;9.20;;
75535;SDS011;64119;52.070;20.804;2023-09-19T03:15:26;15.10;;;9.80;;
75535;SDS011;64119;52.070;20.804;2023-09-19T03:17:52;17.20;;;11.30;;
75535;SDS011;64119;52.070;20.804;2023-09-19T03:20:21;17.00;;;10.30;;
75535;SDS011;64119;52.070;20.804;2023-09-19T03:22:49;14.80;;;10.30;;
75535;SDS011;64119;52.070;20.804;2023-09-19T03:25:16;14.00;;;9.80;;
75535;SDS011;64119;52.070;20.804;2023-09-19T03:27:46;16.40;;;9.50;;
75535;SDS011;64119;52.070;20.804;2023-09-19T03:30:12;16.50;;;10.50;;
75535;SDS011;64119;52.070;20.804;2023-09-19T03:32:44;14.40;;;10.20;;
75535;SDS011;64119;52.070;20.804;2023-09-19T03:35:12;15.80;;;11.10;;
75535;SDS011;64119;52.070;20.804;2023-09-19T03:37:41;15.60;;;10.30;;
75535;SDS011;64119;52.070;20.804;2023-09-19T03:40:09;16.50;;;10.70;;
75535;SDS011;64119;52.070;20.804;2023-09-19T03:42:40;18.10;;;10.30;;
75535;SDS011;64119;52.070;20.804;2023-09-19T03:45:09;15.10;;;10.30;;
75535;SDS011;64119;52.070;20.804;2023-09-19T03:47:42;13.60;;;9.90;;
75535;SDS011;64119;52.070;20.804;2023-09-19T03:50:09;14.40;;;10.50;;
75535;SDS011;64119;52.070;20.804;2023-09-19T03:52:41;16.50;;;10.60;;
75535;SDS011;64119;52.070;20.804;2023-09-19T03:55:08;15.10;;;10.10;;
75535;SDS011;64119;52.070;20.804;2023-09-19T03:57:37;12.20;;;9.30;;
75535;SDS011;64119;52.070;20.804;2023-09-19T04:00:04;14.80;;;10.40;;
75535;SDS011;64119;52.070;20.804;2023-09-19T04:08:05;14.80;;;10.10;;
75535;SDS011;64119;52.070;20.804;2023-09-19T04:10:33;14.00;;;9.40;;
75535;SDS011;64119;52.070;20.804;2023-09-19T04:13:01;15.30;;;9.90;;
75535;SDS011;64119;52.070;20.804;2023-09-19T04:15:30;15.40;;;10.70;;
75535;SDS011;64119;52.070;20.804;2023-09-19T04:17:58;15.40;;;11.50;;
75535;SDS011;64119;52.070;20.804;2023-09-19T04:20:25;16.00;;;11.10;;
75535;SDS011;64119;52.070;20.804;2023-09-19T04:22:53;14.40;;;9.90;;
75535;SDS011;64119;52.070;20.804;2023-09-19T04:25:22;19.60;;;10.00;;
75535;SDS011;64119;52.070;20.804;2023-09-19T04:27:50;15.80;;;10.70;;
75535;SDS011;64119;52.070;20.804;2023-09-19T04:30:17;15.10;;;10.00;;
75535;SDS011;64119;52.070;20.804;2023-09-19T04:32:45;14.30;;;9.70;;
75535;SDS011;64119;52.070;20.804;2023-09-19T04:35:18;16.10;;;9.90;;
75535;SDS011;64119;52.070;20.804;2023-09-19T04:37:46;18.30;;;11.00;;
75535;SDS011;64119;52.070;20.804;2023-09-19T04:40:15;14.60;;;9.90;;
75535;SDS011;64119;52.070;20.804;2023-09-19T04:42:45;14.80;;;10.60;;
75535;SDS011;64119;52.070;20.804;2023-09-19T04:45:27;15.40;;;10.20;;
75535;SDS011;64119;52.070;20.804;2023-09-19T04:47:55;16.60;;;10.70;;
75535;SDS011;64119;52.070;20.804;2023-09-19T04:50:24;14.20;;;9.30;;
75535;SDS011;64119;52.070;20.804;2023-09-19T04:52:54;13.00;;;8.90;;
75535;SDS011;64119;52.070;20.804;2023-09-19T04:55:22;15.60;;;10.70;;
75535;SDS011;64119;52.070;20.804;2023-09-19T04:57:51;14.60;;;10.40;;
75535;SDS011;64119;52.070;20.804;2023-09-19T05:00:21;15.90;;;10.70;;
75535;SDS011;64119;52.070;20.804;2023-09-19T05:02:52;16.10;;;10.30;;
75535;SDS011;64119;52.070;20.804;2023-09-19T05:05:24;15.50;;;10.10;;
75535;SDS011;64119;52.070;20.804;2023-09-19T05:07:53;13.80;;;9.60;;
75535;SDS011;64119;52.070;20.804;2023-09-19T05:10:21;13.70;;;9.60;;
75535;SDS011;64119;52.070;20.804;2023-09-19T05:12:52;15.10;;;9.90;;
75535;SDS011;64119;52.070;20.804;2023-09-19T05:15:21;13.60;;;9.50;;
75535;SDS011;64119;52.070;20.804;2023-09-19T05:17:49;14.10;;;9.60;;
75535;SDS011;64119;52.070;20.804;2023-09-19T05:20:23;14.50;;;9.80;;
75535;SDS011;64119;52.070;20.804;2023-09-19T05:23:00;15.70;;;10.20;;
75535;SDS011;64119;52.070;20.804;2023-09-19T05:25:33;13.60;;;9.20;;
75535;SDS011;64119;52.070;20.804;2023-09-19T05:28:05;15.70;;;9.60;;
75535;SDS011;64119;52.070;20.804;2023-09-19T05:30:35;16.10;;;9.90;;
75535;SDS011;64119;52.070;20.804;2023-09-19T05:33:04;15.50;;;10.40;;
75535;SDS011;64119;52.070;20.804;2023-09-19T05:35:33;13.90;;;9.20;;
75535;SDS011;64119;52.070;20.804;2023-09-19T05:38:00;12.60;;;8.60;;
75535;SDS011;64119;52.070;20.804;2023-09-19T05:40:28;15.30;;;9.80;;
75535;SDS011;64119;52.070;20.804;2023-09-19T05:42:56;14.50;;;10.00;;
75535;SDS011;64119;52.070;20.804;2023-09-19T05:45:24;12.40;;;9.50;;
75535;SDS011;64119;52.070;20.804;2023-09-19T05:47:52;15.30;;;10.50;;
75535;SDS011;64119;52.070;20.804;2023-09-19T05:50:24;14.40;;;9.60;;
75535;SDS011;64119;52.070;20.804;2023-09-19T05:52:52;15.20;;;9.50;;
75535;SDS011;64119;52.070;20.804;2023-09-19T05:55:21;12.70;;;8.90;;
75535;SDS011;64119;52.070;20.804;2023-09-19T05:57:52;19.80;;;10.40;;
75535;SDS011;64119;52.070;20.804;2023-09-19T06:00:22;13.80;;;9.70;;
75535;SDS011;64119;52.070;20.804;2023-09-19T06:02:55;11.30;;;7.70;;
75535;SDS011;64119;52.070;20.804;2023-09-19T06:05:27;13.00;;;8.90;;
75535;SDS011;64119;52.070;20.804;2023-09-19T06:07:57;16.20;;;8.40;;
75535;SDS011;64119;52.070;20.804;2023-09-19T06:10:29;12.80;;;8.50;;
75535;SDS011;64119;52.070;20.804;2023-09-19T06:12:59;13.10;;;9.50;;
75535;SDS011;64119;52.070;20.804;2023-09-19T06:15:32;13.80;;;9.20;;
75535;SDS011;64119;52.070;20.804;2023-09-19T06:18:01;12.40;;;8.80;;
75535;SDS011;64119;52.070;20.804;2023-09-19T06:22:58;11.70;;;8.40;;
75535;SDS011;64119;52.070;20.804;2023-09-19T06:25:26;13.10;;;8.50;;
75535;SDS011;64119;52.070;20.804;2023-09-19T06:27:55;13.60;;;9.30;;
75535;SDS011;64119;52.070;20.804;2023-09-19T06:30:24;14.40;;;10.00;;
75535;SDS011;64119;52.070;20.804;2023-09-19T06:32:57;12.60;;;8.00;;
75535;SDS011;64119;52.070;20.804;2023-09-19T06:35:26;12.70;;;8.90;;
75535;SDS011;64119;52.070;20.804;2023-09-19T06:37:54;16.70;;;8.50;;
75535;SDS011;64119;52.070;20.804;2023-09-19T06:40:26;10.30;;;7.60;;
75535;SDS011;64119;52.070;20.804;2023-09-19T06:42:56;12.50;;;8.10;;
75535;SDS011;64119;52.070;20.804;2023-09-19T06:45:24;11.40;;;7.60;;
75535;SDS011;64119;52.070;20.804;2023-09-19T06:47:54;15.60;;;8.30;;
75535;SDS011;64119;52.070;20.804;2023-09-19T06:50:26;10.80;;;7.60;;
75535;SDS011;64119;52.070;20.804;2023-09-19T06:52:54;11.40;;;8.10;;
75535;SDS011;64119;52.070;20.804;2023-09-19T06:55:25;10.70;;;8.20;;
75535;SDS011;64119;52.070;20.804;2023-09-19T06:57:56;13.30;;;8.10;;
75535;SDS011;64119;52.070;20.804;2023-09-19T07:00:24;11.50;;;8.80;;
75535;SDS011;64119;52.070;20.804;2023-09-19T07:05:30;16.30;;;8.30;;
75535;SDS011;64119;52.070;20.804;2023-09-19T07:10:27;10.80;;;7.90;;
75535;SDS011;64119;52.070;20.804;2023-09-19T07:15:27;10.80;;;7.80;;
75535;SDS011;64119;52.070;20.804;2023-09-19T07:17:56;18.70;;;8.80;;
75535;SDS011;64119;52.070;20.804;2023-09-19T07:20:24;12.10;;;9.40;;
75535;SDS011;64119;52.070;20.804;2023-09-19T07:22:59;11.60;;;6.00;;
75535;SDS011;64119;52.070;20.804;2023-09-19T07:25:27;12.40;;;8.40;;
75535;SDS011;64119;52.070;20.804;2023-09-19T07:27:56;10.70;;;8.90;;
75535;SDS011;64119;52.070;20.804;2023-09-19T07:30:28;11.90;;;8.70;;
75535;SDS011;64119;52.070;20.804;2023-09-19T07:32:56;13.80;;;9.20;;
75535;SDS011;64119;52.070;20.804;2023-09-19T07:35:25;12.00;;;8.70;;
75535;SDS011;64119;52.070;20.804;2023-09-19T07:37:53;12.20;;;8.30;;
75535;SDS011;64119;52.070;20.804;2023-09-19T07:40:21;11.10;;;8.70;;
75535;SDS011;64119;52.070;20.804;2023-09-19T07:42:51;10.30;;;7.90;;
75535;SDS011;64119;52.070;20.804;2023-09-19T07:45:18;15.00;;;8.80;;
75535;SDS011;64119;52.070;20.804;2023-09-19T07:47:46;12.00;;;8.90;;
75535;SDS011;64119;52.070;20.804;2023-09-19T07:50:16;11.50;;;9.00;;
75535;SDS011;64119;52.070;20.804;2023-09-19T07:52:48;12.10;;;8.90;;
75535;SDS011;64119;52.070;20.804;2023-09-19T07:55:19;14.80;;;9.00;;
75535;SDS011;64119;52.070;20.804;2023-09-19T07:57:54;12.90;;;8.40;;
75535;SDS011;64119;52.070;20.804;2023-09-19T08:00:22;12.90;;;9.30;;
75535;SDS011;64119;52.070;20.804;2023-09-19T08:02:49;13.10;;;9.70;;
75535;SDS011;64119;52.070;20.804;2023-09-19T08:05:30;11.00;;;9.40;;
75535;SDS011;64119;52.070;20.804;2023-09-19T08:08:01;12.00;;;9.40;;
75535;SDS011;64119;52.070;20.804;2023-09-19T08:10:28;12.50;;;8.70;;
75535;SDS011;64119;52.070;20.804;2023-09-19T08:13:02;11.60;;;8.60;;
75535;SDS011;64119;52.070;20.804;2023-09-19T08:15:30;11.90;;;8.70;;
75535;SDS011;64119;52.070;20.804;2023-09-19T08:17:58;13.20;;;8.90;;
75535;SDS011;64119;52.070;20.804;2023-09-19T08:20:26;10.70;;;8.60;;
75535;SDS011;64119;52.070;20.804;2023-09-19T08:22:54;11.60;;;8.40;;
75535;SDS011;64119;52.070;20.804;2023-09-19T08:25:23;11.20;;;8.80;;
75535;SDS011;64119;52.070;20.804;2023-09-19T08:27:52;15.80;;;8.30;;
75535;SDS011;64119;52.070;20.804;2023-09-19T08:30:25;13.80;;;8.30;;
75535;SDS011;64119;52.070;20.804;2023-09-19T08:32:58;12.00;;;7.90;;
75535;SDS011;64119;52.070;20.804;2023-09-19T08:35:28;11.20;;;8.10;;
75535;SDS011;64119;52.070;20.804;2023-09-19T08:37:56;12.40;;;8.90;;
75535;SDS011;64119;52.070;20.804;2023-09-19T08:40:25;10.50;;;8.70;;
75535;SDS011;64119;52.070;20.804;2023-09-19T08:42:55;11.60;;;8.10;;
75535;SDS011;64119;52.070;20.804;2023-09-19T08:45:24;11.40;;;8.50;;
75535;SDS011;64119;52.070;20.804;2023-09-19T08:53:54;14.90;;;8.40;;
75535;SDS011;64119;52.070;20.804;2023-09-19T08:56:39;9.30;;;7.00;;
75535;SDS011;64119;52.070;20.804;2023-09-19T08:59:09;9.40;;;7.00;;
75535;SDS011;64119;52.070;20.804;2023-09-19T09:01:40;10.30;;;7.70;;
75535;SDS011;64119;52.070;20.804;2023-09-19T09:04:09;14.60;;;8.80;;
75535;SDS011;64119;52.070;20.804;2023-09-19T09:06:41;12.30;;;8.50;;
75535;SDS011;64119;52.070;20.804;2023-09-19T09:09:11;11.40;;;7.60;;
75535;SDS011;64119;52.070;20.804;2023-09-19T09:11:38;12.80;;;8.40;;
75535;SDS011;64119;52.070;20.804;2023-09-19T09:14:07;15.90;;;9.00;;
75535;SDS011;64119;52.070;20.804;2023-09-19T09:16:36;10.30;;;7.40;;
75535;SDS011;64119;52.070;20.804;2023-09-19T09:19:04;14.20;;;8.90;;
75535;SDS011;64119;52.070;20.804;2023-09-19T09:21:32;12.80;;;8.70;;
75535;SDS011;64119;52.070;20.804;2023-09-19T09:26:57;13.30;;;8.90;;
75535;SDS011;64119;52.070;20.804;2023-09-19T09:32:28;13.30;;;8.90;;
75535;SDS011;64119;52.070;20.804;2023-09-19T09:35:01;15.80;;;9.10;;
75535;SDS011;64119;52.070;20.804;2023-09-19T09:37:37;11.20;;;8.00;;
75535;SDS011;64119;52.070;20.804;2023-09-19T09:40:06;12.30;;;9.40;;
75535;SDS011;64119;52.070;20.804;2023-09-19T09:42:43;12.40;;;9.10;;
75535;SDS011;64119;52.070;20.804;2023-09-19T09:47:48;13.60;;;9.10;;
75535;SDS011;64119;52.070;20.804;2023-09-19T09:52:56;10.30;;;7.80;;
75535;SDS011;64119;52.070;20.804;2023-09-19T09:58:50;5.60;;;4.50;;
75535;SDS011;64119;52.070;20.804;2023-09-19T10:01:23;6.90;;;4.50;;
75535;SDS011;64119;52.070;20.804;2023-09-19T10:03:58;6.10;;;4.00;;
75535;SDS011;64119;52.070;20.804;2023-09-19T10:06:39;6.70;;;4.70;;
75535;SDS011;64119;52.070;20.804;2023-09-19T10:09:10;6.20;;;3.60;;
75535;SDS011;64119;52.070;20.804;2023-09-19T10:14:12;6.30;;;3.90;;
75535;SDS011;64119;52.070;20.804;2023-09-19T10:16:46;7.00;;;4.00;;
75535;SDS011;64119;52.070;20.804;2023-09-19T10:19:16;6.40;;;3.60;;
75535;SDS011;64119;52.070;20.804;2023-09-19T10:22:06;5.40;;;4.00;;
75535;SDS011;64119;52.070;20.804;2023-09-19T10:24:37;4.70;;;2.90;;
75535;SDS011;64119;52.070;20.804;2023-09-19T10:27:24;5.60;;;3.30;;
75535;SDS011;64119;52.070;20.804;2023-09-19T10:29:54;4.70;;;3.20;;
75535;SDS011;64119;52.070;20.804;2023-09-19T10:32:27;4.80;;;3.70;;
75535;SDS011;64119;52.070;20.804;2023-09-19T10:35:01;4.80;;;2.60;;
75535;SDS011;64119;52.070;20.804;2023-09-19T10:37:32;4.10;;;2.80;;
75535;SDS011;64119;52.070;20.804;2023-09-19T10:40:05;4.50;;;2.80;;
75535;SDS011;64119;52.070;20.804;2023-09-19T10:42:37;4.90;;;2.30;;
75535;SDS011;64119;52.070;20.804;2023-09-19T10:45:05;4.50;;;2.90;;
75535;SDS011;64119;52.070;20.804;2023-09-19T10:47:40;5.60;;;2.90;;
75535;SDS011;64119;52.070;20.804;2023-09-19T10:50:08;4.20;;;2.50;;
75535;SDS011;64119;52.070;20.804;2023-09-19T10:52:39;4.40;;;3.00;;
75535;SDS011;64119;52.070;20.804;2023-09-19T10:55:09;3.80;;;2.70;;
75535;SDS011;64119;52.070;20.804;2023-09-19T10:57:46;6.00;;;2.90;;
75535;SDS011;64119;52.070;20.804;2023-09-19T11:00:14;4.80;;;2.70;;
75535;SDS011;64119;52.070;20.804;2023-09-19T11:28:42;6.50;;;3.10;;
75535;SDS011;64119;52.070;20.804;2023-09-19T11:30:50;5.30;;;3.10;;
75535;SDS011;64119;52.070;20.804;2023-09-19T11:33:22;5.20;;;3.60;;
75535;SDS011;64119;52.070;20.804;2023-09-19T11:36:06;4.60;;;2.80;;
75535;SDS011;64119;52.070;20.804;2023-09-19T11:46:28;4.90;;;2.80;;
75535;SDS011;64119;52.070;20.804;2023-09-19T11:49:07;4.60;;;3.10;;
75535;SDS011;64119;52.070;20.804;2023-09-19T11:51:41;6.60;;;3.70;;
75535;SDS011;64119;52.070;20.804;2023-09-19T11:54:14;5.30;;;3.30;;
75535;SDS011;64119;52.070;20.804;2023-09-19T11:59:38;5.80;;;3.50;;
75535;SDS011;64119;52.070;20.804;2023-09-19T12:02:07;4.90;;;3.20;;
75535;SDS011;64119;52.070;20.804;2023-09-19T12:04:37;7.00;;;3.60;;
75535;SDS011;64119;52.070;20.804;2023-09-19T12:07:08;6.60;;;3.60;;
75535;SDS011;64119;52.070;20.804;2023-09-19T12:09:48;6.20;;;3.70;;
75535;SDS011;64119;52.070;20.804;2023-09-19T12:12:24;6.40;;;3.70;;
75535;SDS011;64119;52.070;20.804;2023-09-19T12:14:56;5.20;;;3.20;;
75535;SDS011;64119;52.070;20.804;2023-09-19T12:17:40;7.40;;;4.00;;
75535;SDS011;64119;52.070;20.804;2023-09-19T12:20:10;4.70;;;3.20;;
75535;SDS011;64119;52.070;20.804;2023-09-19T12:22:41;6.10;;;3.50;;
75535;SDS011;64119;52.070;20.804;2023-09-19T12:25:11;5.50;;;3.80;;
75535;SDS011;64119;52.070;20.804;2023-09-19T12:30:11;5.10;;;3.40;;
75535;SDS011;64119;52.070;20.804;2023-09-19T12:32:54;4.80;;;3.90;;
75535;SDS011;64119;52.070;20.804;2023-09-19T12:35:29;6.10;;;3.60;;
75535;SDS011;64119;52.070;20.804;2023-09-19T12:38:03;5.40;;;3.60;;
75535;SDS011;64119;52.070;20.804;2023-09-19T12:40:32;5.70;;;4.00;;
75535;SDS011;64119;52.070;20.804;2023-09-19T12:43:02;8.10;;;3.50;;
75535;SDS011;64119;52.070;20.804;2023-09-19T12:45:30;6.40;;;4.00;;
75535;SDS011;64119;52.070;20.804;2023-09-19T12:53:35;7.00;;;4.40;;
75535;SDS011;64119;52.070;20.804;2023-09-19T12:56:09;7.00;;;4.20;;
75535;SDS011;64119;52.070;20.804;2023-09-19T12:58:54;5.40;;;3.90;;
75535;SDS011;64119;52.070;20.804;2023-09-19T13:01:24;7.90;;;4.60;;
75535;SDS011;64119;52.070;20.804;2023-09-19T13:06:49;6.50;;;4.80;;
75535;SDS011;64119;52.070;20.804;2023-09-19T13:09:18;5.80;;;3.50;;
75535;SDS011;64119;52.070;20.804;2023-09-19T13:12:02;8.40;;;5.20;;
75535;SDS011;64119;52.070;20.804;2023-09-19T13:14:30;6.40;;;4.60;;
75535;SDS011;64119;52.070;20.804;2023-09-19T13:17:06;7.80;;;5.20;;
75535;SDS011;64119;52.070;20.804;2023-09-19T13:19:46;8.50;;;5.40;;
75535;SDS011;64119;52.070;20.804;2023-09-19T13:25:07;9.70;;;6.40;;
75535;SDS011;64119;52.070;20.804;2023-09-19T13:30:25;7.80;;;5.50;;
75535;SDS011;64119;52.070;20.804;2023-09-19T13:33:11;8.20;;;6.10;;
75535;SDS011;64119;52.070;20.804;2023-09-19T13:35:39;7.00;;;6.10;;
75535;SDS011;64119;52.070;20.804;2023-09-19T13:38:10;8.60;;;5.70;;
75535;SDS011;64119;52.070;20.804;2023-09-19T13:40:39;10.90;;;5.50;;
75535;SDS011;64119;52.070;20.804;2023-09-19T13:43:09;12.90;;;6.20;;
75535;SDS011;64119;52.070;20.804;2023-09-19T13:45:39;7.90;;;6.60;;
75535;SDS011;64119;52.070;20.804;2023-09-19T13:48:10;8.00;;;5.70;;
75535;SDS011;64119;52.070;20.804;2023-09-19T13:50:40;9.20;;;5.70;;
75535;SDS011;64119;52.070;20.804;2023-09-19T13:53:10;11.40;;;6.10;;
75535;SDS011;64119;52.070;20.804;2023-09-19T13:55:39;9.00;;;6.40;;
75535;SDS011;64119;52.070;20.804;2023-09-19T13:58:07;7.30;;;6.30;;
75535;SDS011;64119;52.070;20.804;2023-09-19T14:00:38;9.30;;;6.90;;
75535;SDS011;64119;52.070;20.804;2023-09-19T14:03:06;8.50;;;6.60;;
75535;SDS011;64119;52.070;20.804;2023-09-19T14:05:34;7.50;;;5.80;;
75535;SDS011;64119;52.070;20.804;2023-09-19T14:08:02;6.30;;;5.70;;
75535;SDS011;64119;52.070;20.804;2023-09-19T14:10:30;8.10;;;5.80;;
75535;SDS011;64119;52.070;20.804;2023-09-19T14:12:59;5.60;;;5.10;;
75535;SDS011;64119;52.070;20.804;2023-09-19T14:15:27;6.70;;;5.20;;
75535;SDS011;64119;52.070;20.804;2023-09-19T14:17:59;5.90;;;5.30;;
75535;SDS011;64119;52.070;20.804;2023-09-19T14:20:28;5.70;;;4.60;;
75535;SDS011;64119;52.070;20.804;2023-09-19T14:22:57;4.80;;;4.00;;
75535;SDS011;64119;52.070;20.804;2023-09-19T14:25:29;5.90;;;5.00;;
75535;SDS011;64119;52.070;20.804;2023-09-19T14:27:58;6.90;;;5.40;;
75535;SDS011;64119;52.070;20.804;2023-09-19T14:30:26;5.70;;;4.40;;
75535;SDS011;64119;52.070;20.804;2023-09-19T14:32:55;5.60;;;4.80;;
75535;SDS011;64119;52.070;20.804;2023-09-19T14:35:23;6.80;;;4.00;;
75535;SDS011;64119;52.070;20.804;2023-09-19T14:37:51;5.30;;;4.40;;
75535;SDS011;64119;52.070;20.804;2023-09-19T14:40:19;8.00;;;4.30;;
75535;SDS011;64119;52.070;20.804;2023-09-19T14:42:47;4.90;;;4.40;;
75535;SDS011;64119;52.070;20.804;2023-09-19T14:45:19;5.20;;;4.00;;
75535;SDS011;64119;52.070;20.804;2023-09-19T14:47:47;6.80;;;4.50;;
75535;SDS011;64119;52.070;20.804;2023-09-19T14:50:17;6.70;;;4.30;;
75535;SDS011;64119;52.070;20.804;2023-09-19T14:52:45;8.00;;;5.10;;
75535;SDS011;64119;52.070;20.804;2023-09-19T14:55:13;5.20;;;4.60;;
75535;SDS011;64119;52.070;20.804;2023-09-19T14:57:42;5.80;;;4.40;;
75535;SDS011;64119;52.070;20.804;2023-09-19T15:00:12;5.40;;;4.10;;
75535;SDS011;64119;52.070;20.804;2023-09-19T15:02:41;6.10;;;3.70;;
75535;SDS011;64119;52.070;20.804;2023-09-19T15:05:09;7.20;;;4.20;;
75535;SDS011;64119;52.070;20.804;2023-09-19T15:07:38;4.30;;;3.80;;
75535;SDS011;64119;52.070;20.804;2023-09-19T15:10:06;5.20;;;4.10;;
75535;SDS011;64119;52.070;20.804;2023-09-19T15:12:38;7.80;;;3.90;;
75535;SDS011;64119;52.070;20.804;2023-09-19T15:15:05;6.20;;;4.90;;
75535;SDS011;64119;52.070;20.804;2023-09-19T15:17:36;5.00;;;4.60;;
75535;SDS011;64119;52.070;20.804;2023-09-19T15:20:05;4.90;;;3.80;;
75535;SDS011;64119;52.070;20.804;2023-09-19T15:22:35;5.60;;;4.00;;
75535;SDS011;64119;52.070;20.804;2023-09-19T15:25:04;5.50;;;3.80;;
75535;SDS011;64119;52.070;20.804;2023-09-19T15:27:32;5.20;;;4.00;;
75535;SDS011;64119;52.070;20.804;2023-09-19T15:30:00;7.50;;;4.40;;
75535;SDS011;64119;52.070;20.804;2023-09-19T15:32:30;5.60;;;3.70;;
75535;SDS011;64119;52.070;20.804;2023-09-19T15:34:58;5.40;;;3.70;;
75535;SDS011;64119;52.070;20.804;2023-09-19T15:37:26;4.50;;;3.40;;
75535;SDS011;64119;52.070;20.804;2023-09-19T15:39:54;6.30;;;3.50;;
75535;SDS011;64119;52.070;20.804;2023-09-19T15:42:21;5.60;;;3.80;;
75535;SDS011;64119;52.070;20.804;2023-09-19T15:44:49;5.40;;;3.60;;
75535;SDS011;64119;52.070;20.804;2023-09-19T15:47:18;4.40;;;3.80;;
75535;SDS011;64119;52.070;20.804;2023-09-19T15:49:47;6.00;;;3.40;;
75535;SDS011;64119;52.070;20.804;2023-09-19T15:52:17;3.90;;;3.10;;
75535;SDS011;64119;52.070;20.804;2023-09-19T15:54:45;5.70;;;3.40;;
75535;SDS011;64119;52.070;20.804;2023-09-19T15:57:13;5.10;;;3.40;;
75535;SDS011;64119;52.070;20.804;2023-09-19T15:59:42;5.00;;;3.40;;
75535;SDS011;64119;52.070;20.804;2023-09-19T16:02:09;5.20;;;3.40;;
75535;SDS011;64119;52.070;20.804;2023-09-19T16:04:37;5.00;;;2.80;;
75535;SDS011;64119;52.070;20.804;2023-09-19T16:07:06;4.60;;;3.00;;
75535;SDS011;64119;52.070;20.804;2023-09-19T16:09:34;5.70;;;3.20;;
75535;SDS011;64119;52.070;20.804;2023-09-19T16:12:03;4.50;;;3.10;;
75535;SDS011;64119;52.070;20.804;2023-09-19T16:14:31;6.40;;;3.00;;
75535;SDS011;64119;52.070;20.804;2023-09-19T16:16:59;4.50;;;2.90;;
75535;SDS011;64119;52.070;20.804;2023-09-19T16:19:27;3.30;;;2.90;;
75535;SDS011;64119;52.070;20.804;2023-09-19T16:21:55;7.60;;;3.20;;
75535;SDS011;64119;52.070;20.804;2023-09-19T16:24:23;3.30;;;3.00;;
75535;SDS011;64119;52.070;20.804;2023-09-19T16:26:52;3.80;;;3.20;;
75535;SDS011;64119;52.070;20.804;2023-09-19T16:29:20;4.50;;;3.00;;